createdAt,value
2019-02-06T00:01:08.954Z,22.13
2019-02-06T00:03:38.267Z,19.12
2019-02-06T00:06:07.550Z,19.65
2019-02-06T00:08:36.855Z,19.35
2019-02-06T00:11:06.207Z,17.87
2019-02-06T00:13:36.071Z,19.67
2019-02-06T00:16:06.081Z,23.87
2019-02-06T00:18:35.703Z,24.77
2019-02-06T00:21:05.059Z,19.30
2019-02-06T00:23:34.347Z,19.05
2019-02-06T00:26:03.723Z,21.17
2019-02-06T00:28:33.383Z,20.45
2019-02-06T00:31:02.684Z,19.62
2019-02-06T00:33:32.050Z,18.75
2019-02-06T00:36:01.330Z,17.40
2019-02-06T00:38:30.633Z,18.20
2019-02-06T00:41:00.036Z,17.90
2019-02-06T00:43:29.495Z,18.05
2019-02-06T00:45:58.804Z,16.80
2019-02-06T00:48:28.114Z,17.57
2019-02-06T00:50:57.395Z,18.10
2019-02-06T00:53:27.035Z,21.97
2019-02-06T00:55:56.326Z,20.23
2019-02-06T00:58:25.878Z,18.32
2019-02-06T01:00:55.186Z,19.00
2019-02-06T01:03:24.742Z,20.10
2019-02-06T01:05:54.355Z,18.70
2019-02-06T01:08:23.959Z,20.85
2019-02-06T01:10:53.262Z,18.40
2019-02-06T01:13:22.823Z,16.20
2019-02-06T01:15:52.110Z,17.23
2019-02-06T01:18:21.399Z,17.95
2019-02-06T01:20:50.723Z,17.23
2019-02-06T01:23:20.023Z,16.05
2019-02-06T01:25:49.322Z,14.73
2019-02-06T01:28:18.952Z,17.98
2019-02-06T01:30:49.899Z,17.23
2019-02-06T01:33:19.199Z,15.53
2019-02-06T01:35:50.200Z,15.90
2019-02-06T01:38:19.976Z,15.70
2019-02-06T01:40:49.258Z,17.10
2019-02-06T01:43:18.939Z,16.65
2019-02-06T01:45:48.238Z,15.80
2019-02-06T01:48:17.538Z,15.90
2019-02-06T01:50:46.831Z,17.42
2019-02-06T01:53:16.142Z,15.53
2019-02-06T01:55:45.698Z,16.05
2019-02-06T01:58:14.983Z,17.73
2019-02-06T02:00:44.283Z,18.27
2019-02-06T02:03:13.707Z,14.80
2019-02-06T02:05:43.028Z,15.72
2019-02-06T02:08:12.590Z,16.10
2019-02-06T02:10:41.969Z,15.55
2019-02-06T02:13:11.255Z,16.02
2019-02-06T02:15:40.844Z,15.83
2019-02-06T02:18:10.215Z,15.30
2019-02-06T02:20:39.731Z,16.82
2019-02-06T02:23:09.039Z,14.53
2019-02-06T02:25:38.639Z,16.12
2019-02-06T02:28:07.928Z,16.32
2019-02-06T02:30:38.889Z,16.30
2019-02-06T02:33:08.166Z,15.90
2019-02-06T02:35:37.468Z,17.20
2019-02-06T02:38:11.193Z,16.55
2019-02-06T02:40:40.675Z,15.75
2019-02-06T02:43:10.351Z,15.55
2019-02-06T02:45:39.651Z,16.60
2019-02-06T02:48:09.019Z,15.78
2019-02-06T02:50:38.316Z,16.62
2019-02-06T02:53:07.696Z,16.73
2019-02-06T02:55:36.980Z,16.85
2019-02-06T02:58:08.263Z,16.82
2019-02-06T03:00:47.940Z,17.05
2019-02-06T03:03:28.362Z,15.48
2019-02-06T03:05:57.715Z,17.15
2019-02-06T03:08:27.403Z,15.83
2019-02-06T03:10:56.693Z,14.60
2019-02-06T03:13:26.272Z,17.23
2019-02-06T03:15:55.893Z,16.23
2019-02-06T03:18:25.190Z,15.72
2019-02-06T03:20:54.502Z,16.85
2019-02-06T03:23:24.181Z,18.20
2019-02-06T03:25:53.800Z,17.55
2019-02-06T03:28:23.105Z,17.60
2019-02-06T03:30:52.427Z,18.50
2019-02-06T03:33:21.797Z,17.20
2019-02-06T03:35:51.151Z,17.45
2019-02-06T03:38:21.123Z,16.45
2019-02-06T03:40:50.422Z,17.67
2019-02-06T03:43:19.707Z,18.95
2019-02-06T03:45:49.087Z,18.98
2019-02-06T03:48:18.362Z,16.87
2019-02-06T03:50:47.668Z,17.15
2019-02-06T03:53:16.982Z,18.05
2019-02-06T03:55:46.282Z,18.00
2019-02-06T03:58:15.663Z,18.90
2019-02-06T04:00:44.972Z,17.37
2019-02-06T04:03:14.259Z,18.10
2019-02-06T04:05:43.548Z,18.80
2019-02-06T04:08:12.858Z,18.00
2019-02-06T04:10:42.324Z,17.20
2019-02-06T04:13:11.863Z,16.05
2019-02-06T04:15:41.163Z,18.02
2019-02-06T04:18:10.447Z,18.73
2019-02-06T04:20:39.752Z,17.62
2019-02-06T04:23:09.032Z,16.57
2019-02-06T04:25:38.441Z,18.95
2019-02-06T04:28:07.703Z,19.70
2019-02-06T04:30:37.003Z,18.15
2019-02-06T04:33:06.290Z,17.52
2019-02-06T04:35:35.671Z,23.65
2019-02-06T04:38:05.110Z,22.42
2019-02-06T04:40:34.585Z,22.90
2019-02-06T04:43:03.891Z,18.67
2019-02-06T04:45:33.191Z,19.15
2019-02-06T04:48:02.496Z,17.10
2019-02-06T04:50:31.778Z,18.90
2019-02-06T04:53:01.084Z,17.70
2019-02-06T04:55:30.782Z,16.97
2019-02-06T04:58:00.065Z,18.02
2019-02-06T05:00:29.367Z,17.20
2019-02-06T05:02:58.658Z,18.27
2019-02-06T05:05:27.969Z,17.82
2019-02-06T05:07:57.285Z,18.35
2019-02-06T05:10:26.852Z,17.12
2019-02-06T05:12:56.146Z,18.73
2019-02-06T05:15:25.435Z,17.45
2019-02-06T05:17:55.967Z,17.48
2019-02-06T05:20:31.624Z,17.98
2019-02-06T05:23:00.910Z,17.98
2019-02-06T05:25:30.487Z,19.40
2019-02-06T05:27:59.786Z,18.95
2019-02-06T05:30:29.384Z,18.23
2019-02-06T05:32:59.327Z,22.70
2019-02-06T05:35:28.682Z,22.25
2019-02-06T05:37:57.963Z,19.32
2019-02-06T05:40:27.750Z,18.45
2019-02-06T05:42:57.043Z,19.15
2019-02-06T05:45:26.346Z,17.90
2019-02-06T05:47:55.627Z,18.40
2019-02-06T05:50:24.957Z,18.07
2019-02-06T05:52:54.231Z,17.02
2019-02-06T05:55:23.515Z,20.35
2019-02-06T05:57:52.814Z,16.73
2019-02-06T06:00:25.584Z,18.25
2019-02-06T06:02:54.896Z,19.07
2019-02-06T06:05:24.257Z,20.50
2019-02-06T06:07:53.557Z,19.35
2019-02-06T06:10:23.503Z,20.50
2019-02-06T06:12:52.811Z,18.35
2019-02-06T06:15:22.217Z,17.62
2019-02-06T06:17:51.551Z,19.57
2019-02-06T06:20:21.186Z,18.77
2019-02-06T06:22:50.463Z,18.75
2019-02-06T06:25:21.080Z,19.10
2019-02-06T06:27:50.620Z,19.52
2019-02-06T06:30:21.472Z,19.95
2019-02-06T06:32:50.914Z,19.73
2019-02-06T06:35:20.428Z,19.27
2019-02-06T06:38:00.820Z,20.43
2019-02-06T06:40:22.819Z,20.37
2019-02-06T06:42:52.116Z,20.27
2019-02-06T06:45:24.158Z,20.57
2019-02-06T06:47:53.415Z,23.43
2019-02-06T06:50:24.464Z,21.62
2019-02-06T06:52:53.754Z,22.32
2019-02-06T06:55:23.834Z,21.87
2019-02-06T06:57:53.090Z,20.90
2019-02-06T07:00:27.491Z,21.75
2019-02-06T07:02:56.791Z,23.40
2019-02-06T07:05:26.151Z,23.92
2019-02-06T07:07:55.807Z,23.62
2019-02-06T07:10:25.489Z,20.95
2019-02-06T07:12:55.087Z,22.62
2019-02-06T07:15:30.052Z,22.50
2019-02-06T07:17:59.687Z,20.37
2019-02-06T07:20:28.971Z,21.35
2019-02-06T07:22:58.945Z,20.25
2019-02-06T07:25:28.247Z,19.00
2019-02-06T07:27:57.858Z,20.60
2019-02-06T07:30:36.661Z,19.60
2019-02-06T07:33:06.312Z,21.05
2019-02-06T07:35:35.611Z,22.42
2019-02-06T07:38:05.082Z,21.23
2019-02-06T07:40:34.364Z,21.73
2019-02-06T07:43:03.688Z,23.67
2019-02-06T07:45:32.975Z,22.93
2019-02-06T07:48:02.270Z,21.40
2019-02-06T07:50:35.459Z,23.87
2019-02-06T07:53:04.743Z,23.25
2019-02-06T07:55:34.034Z,20.17
2019-02-06T07:58:03.359Z,19.23
2019-02-06T08:00:32.722Z,20.50
2019-02-06T08:03:02.069Z,22.25
2019-02-06T08:05:31.699Z,21.30
2019-02-06T08:08:01.015Z,20.90
2019-02-06T08:10:32.908Z,20.80
2019-02-06T08:13:02.542Z,21.30
2019-02-06T08:15:31.842Z,23.60
2019-02-06T08:18:01.137Z,22.22
2019-02-06T08:20:30.503Z,20.57
2019-02-06T08:22:59.867Z,22.15
2019-02-06T08:25:29.165Z,22.98
2019-02-06T08:27:58.458Z,21.60
2019-02-06T08:30:36.330Z,19.02
2019-02-06T08:33:06.088Z,21.62
2019-02-06T08:35:35.714Z,20.90
2019-02-06T08:38:05.407Z,22.05
2019-02-06T08:40:35.439Z,24.37
2019-02-06T08:43:04.995Z,22.90
2019-02-06T08:45:34.299Z,23.45
2019-02-06T08:48:03.863Z,22.42
2019-02-06T08:50:33.439Z,24.70
2019-02-06T08:53:02.736Z,23.50
2019-02-06T08:55:33.580Z,23.83
2019-02-06T08:58:03.039Z,24.30
2019-02-06T09:00:35.186Z,23.22
2019-02-06T09:03:07.172Z,22.32
2019-02-06T09:05:36.555Z,23.75
2019-02-06T09:08:06.275Z,22.48
2019-02-06T09:10:35.657Z,22.93
2019-02-06T09:13:05.906Z,19.40
2019-02-06T09:15:35.207Z,23.07
2019-02-06T09:18:05.446Z,21.12
2019-02-06T09:20:34.819Z,22.30
2019-02-06T09:23:04.270Z,23.27
2019-02-06T09:25:33.562Z,21.80
2019-02-06T09:28:02.864Z,22.40
2019-02-06T09:30:36.098Z,23.67
2019-02-06T09:33:05.831Z,22.22
2019-02-06T09:35:35.209Z,24.90
2019-02-06T09:38:04.744Z,23.77
2019-02-06T09:40:34.043Z,21.90
2019-02-06T09:43:03.344Z,22.07
2019-02-06T09:45:32.631Z,23.12
2019-02-06T09:48:01.931Z,21.37
2019-02-06T09:50:33.561Z,24.50
2019-02-06T09:53:02.855Z,22.07
2019-02-06T09:55:32.274Z,21.42
2019-02-06T09:58:01.596Z,23.20
2019-02-06T10:00:35.455Z,20.05
2019-02-06T10:03:05.372Z,22.58
2019-02-06T10:05:35.128Z,23.15
2019-02-06T10:08:04.839Z,23.15
2019-02-06T10:10:34.210Z,22.70
2019-02-06T10:13:03.584Z,21.02
2019-02-06T10:15:35.007Z,21.10
2019-02-06T10:18:05.915Z,23.92
2019-02-06T10:20:40.995Z,23.85
2019-02-06T10:23:10.749Z,23.42
2019-02-06T10:25:40.030Z,22.77
2019-02-06T10:28:09.411Z,23.77
2019-02-06T10:30:44.422Z,25.95
2019-02-06T10:33:13.796Z,25.12
2019-02-06T10:35:43.170Z,23.55
2019-02-06T10:38:12.529Z,25.27
2019-02-06T10:40:41.828Z,23.60
2019-02-06T10:43:11.190Z,27.95
2019-02-06T10:45:40.818Z,25.40
2019-02-06T10:48:10.126Z,26.20
2019-02-06T10:50:45.239Z,24.02
2019-02-06T10:53:14.610Z,24.12
2019-02-06T10:55:43.895Z,25.30
2019-02-06T10:58:13.276Z,24.20
2019-02-06T11:00:46.082Z,24.10
2019-02-06T11:03:15.624Z,22.87
2019-02-06T11:05:44.990Z,25.70
2019-02-06T11:08:14.370Z,24.63
2019-02-06T11:10:43.655Z,25.48
2019-02-06T11:13:13.251Z,26.60
2019-02-06T11:15:42.612Z,24.80
2019-02-06T11:18:11.982Z,25.43
2019-02-06T11:20:41.379Z,24.95
2019-02-06T11:23:10.838Z,23.27
2019-02-06T11:25:40.274Z,25.50
2019-02-06T11:28:09.598Z,25.85
2019-02-06T11:30:40.099Z,26.70
2019-02-06T11:33:09.922Z,26.90
2019-02-06T11:35:39.531Z,24.63
2019-02-06T11:38:08.911Z,25.57
2019-02-06T11:40:38.532Z,24.37
2019-02-06T11:43:08.239Z,23.65
2019-02-06T11:45:37.599Z,25.43
2019-02-06T11:48:06.982Z,23.60
2019-02-06T11:50:38.279Z,24.50
2019-02-06T11:53:09.143Z,25.32
2019-02-06T11:55:38.522Z,25.12
2019-02-06T11:58:08.203Z,25.10
2019-02-06T12:00:40.586Z,24.05
2019-02-06T12:03:09.890Z,24.15
2019-02-06T12:05:39.179Z,25.27
2019-02-06T12:08:08.555Z,24.18
2019-02-06T12:10:37.847Z,22.82
2019-02-06T12:13:07.543Z,24.60
2019-02-06T12:15:37.732Z,24.92
2019-02-06T12:18:07.730Z,26.25
2019-02-06T12:20:37.455Z,24.98
2019-02-06T12:23:06.936Z,26.62
2019-02-06T12:25:36.487Z,26.23
2019-02-06T12:28:06.249Z,26.10
2019-02-06T12:30:41.738Z,25.55
2019-02-06T12:33:11.152Z,27.07
2019-02-06T12:35:40.452Z,26.65
2019-02-06T12:38:09.739Z,26.07
2019-02-06T12:40:39.184Z,24.60
2019-02-06T12:43:10.706Z,26.62
2019-02-06T12:45:40.196Z,27.52
2019-02-06T12:48:09.618Z,26.65
2019-02-06T12:50:39.191Z,26.93
2019-02-06T12:53:08.726Z,27.32
2019-02-06T12:55:40.094Z,25.77
2019-02-06T12:58:09.920Z,25.23
2019-02-06T13:00:43.948Z,27.13
2019-02-06T13:03:13.487Z,24.95
2019-02-06T13:05:42.771Z,25.02
2019-02-06T13:08:12.070Z,27.25
2019-02-06T13:10:41.619Z,25.12
2019-02-06T13:13:10.917Z,26.10
2019-02-06T13:15:40.223Z,25.15
2019-02-06T13:18:09.529Z,28.10
2019-02-06T13:20:39.137Z,26.60
2019-02-06T13:23:08.438Z,25.92
2019-02-06T13:25:37.732Z,26.77
2019-02-06T13:28:07.045Z,27.75
2019-02-06T13:30:37.479Z,26.35
2019-02-06T13:33:08.062Z,25.85
2019-02-06T13:35:38.939Z,25.57
2019-02-06T13:38:08.230Z,28.52
2019-02-06T13:40:45.147Z,27.93
2019-02-06T13:43:08.527Z,28.95
2019-02-06T13:45:43.175Z,27.90
2019-02-06T13:48:12.463Z,30.10
2019-02-06T13:50:42.107Z,29.27
2019-02-06T13:53:11.463Z,28.02
2019-02-06T13:55:40.763Z,25.72
2019-02-06T13:58:19.745Z,27.35
2019-02-06T14:00:42.307Z,27.13
2019-02-06T14:03:11.591Z,28.42
2019-02-06T14:05:42.232Z,27.45
2019-02-06T14:08:13.764Z,24.70
2019-02-06T14:10:43.208Z,25.45
2019-02-06T14:13:12.496Z,27.58
2019-02-06T14:15:44.263Z,26.90
2019-02-06T14:18:13.558Z,26.23
2019-02-06T14:20:43.895Z,26.57
2019-02-06T14:23:18.811Z,27.52
2019-02-06T14:25:53.872Z,26.10
2019-02-06T14:28:45.775Z,30.00
2019-02-06T14:31:52.939Z,28.02
2019-02-06T14:34:41.961Z,27.87
2019-02-06T14:37:23.656Z,27.60
2019-02-06T14:39:56.026Z,29.02
2019-02-06T14:42:34.138Z,23.83
2019-02-06T14:45:18.748Z,24.15
2019-02-06T14:47:56.883Z,25.23
2019-02-06T14:50:57.823Z,25.60
2019-02-06T14:53:32.788Z,26.12
2019-02-06T14:56:27.768Z,26.35
2019-02-06T14:59:20.783Z,28.17
2019-02-06T15:01:59.115Z,26.68
2019-02-06T15:04:46.714Z,26.35
2019-02-06T15:07:28.204Z,28.40
2019-02-06T15:10:12.499Z,25.60
2019-02-06T15:13:00.596Z,28.17
2019-02-06T15:15:58.640Z,28.10
2019-02-06T15:18:40.871Z,27.58
2019-02-06T15:21:34.446Z,25.23
2019-02-06T15:24:09.488Z,28.77
2019-02-06T15:26:50.967Z,27.17
2019-02-06T15:29:29.068Z,26.82
2019-02-06T15:32:16.590Z,28.05
2019-02-06T15:35:03.839Z,27.17
2019-02-06T15:37:36.224Z,25.90
2019-02-06T15:40:26.900Z,26.95
2019-02-06T15:43:02.234Z,26.30
2019-02-06T15:45:37.247Z,27.50
2019-02-06T15:48:20.969Z,26.75
2019-02-06T15:51:15.783Z,27.42
2019-02-06T15:54:00.270Z,28.15
2019-02-06T15:56:53.367Z,28.15
2019-02-06T15:59:59.595Z,27.58
2019-02-06T16:02:52.580Z,29.18
2019-02-06T16:05:32.395Z,30.25
2019-02-06T16:08:22.873Z,28.98
2019-02-06T16:10:58.086Z,28.67
2019-02-06T16:13:31.063Z,29.40
2019-02-06T16:16:32.133Z,27.67
2019-02-06T16:19:33.007Z,28.40
2019-02-06T16:22:29.454Z,28.77
2019-02-06T16:25:02.050Z,28.42
2019-02-06T16:27:37.503Z,29.85
2019-02-06T16:30:32.523Z,29.00
2019-02-06T16:33:13.631Z,30.77
2019-02-06T16:35:54.722Z,31.17
2019-02-06T16:38:39.115Z,30.67
2019-02-06T16:41:17.087Z,31.97
2019-02-06T16:43:58.476Z,29.77
2019-02-06T16:46:48.832Z,30.65
2019-02-06T16:49:24.207Z,31.05
2019-02-06T16:52:05.758Z,33.00
2019-02-06T16:54:57.155Z,32.35
2019-02-06T16:57:44.636Z,30.43
2019-02-06T17:00:39.808Z,32.03
2019-02-06T17:03:37.858Z,32.23
2019-02-06T17:06:10.503Z,32.98
2019-02-06T17:09:15.029Z,34.80
2019-02-06T17:12:04.385Z,36.60
2019-02-06T17:14:48.960Z,35.58
2019-02-06T17:17:30.126Z,31.50
2019-02-06T17:20:36.410Z,30.72
2019-02-06T17:23:20.744Z,33.30
2019-02-06T17:26:08.386Z,32.55
2019-02-06T17:28:41.020Z,32.73
2019-02-06T17:31:19.391Z,33.10
2019-02-06T17:33:58.154Z,33.73
2019-02-06T17:36:36.318Z,33.58
2019-02-06T17:39:24.126Z,34.58
2019-02-06T17:42:15.345Z,33.92
2019-02-06T17:44:40.688Z,35.03
2019-02-06T17:47:31.429Z,34.98
2019-02-06T17:50:37.163Z,33.20
2019-02-06T17:53:24.655Z,31.93
2019-02-06T17:55:53.992Z,32.67
2019-02-06T17:58:23.346Z,31.10
2019-02-06T18:00:56.405Z,31.10
2019-02-06T18:03:25.859Z,31.20
2019-02-06T18:05:55.195Z,31.87
2019-02-06T18:08:24.533Z,30.10
2019-02-06T18:10:53.867Z,29.20
2019-02-06T18:13:23.171Z,30.12
2019-02-06T18:15:52.473Z,29.57
2019-02-06T18:18:22.069Z,30.62
2019-02-06T18:20:51.392Z,33.02
2019-02-06T18:23:20.693Z,29.67
2019-02-06T18:25:50.051Z,32.58
2019-02-06T18:28:19.361Z,30.37
2019-02-06T18:30:48.635Z,28.75
2019-02-06T18:33:18.847Z,29.80
2019-02-06T18:35:48.824Z,30.30
2019-02-06T18:38:18.195Z,31.57
2019-02-06T18:40:48.427Z,32.23
2019-02-06T18:43:17.792Z,31.05
2019-02-06T18:45:47.247Z,32.95
2019-02-06T18:48:18.871Z,33.53
2019-02-06T18:50:48.222Z,33.55
2019-02-06T18:53:18.014Z,33.92
2019-02-06T18:55:47.299Z,31.48
2019-02-06T18:58:16.620Z,32.42
2019-02-06T19:00:46.589Z,31.65
2019-02-06T19:03:26.743Z,35.43
2019-02-06T19:05:56.240Z,34.98
2019-02-06T19:08:25.897Z,33.23
2019-02-06T19:10:55.447Z,32.17
2019-02-06T19:13:24.840Z,32.10
2019-02-06T19:15:56.499Z,32.50
2019-02-06T19:18:25.169Z,29.87
2019-02-06T19:20:54.502Z,32.33
2019-02-06T19:23:23.783Z,31.00
2019-02-06T19:25:53.872Z,30.95
2019-02-06T19:28:23.481Z,30.32
2019-02-06T19:30:55.464Z,30.72
2019-02-06T19:33:23.763Z,32.60
2019-02-06T19:35:53.064Z,31.02
2019-02-06T19:38:22.346Z,32.80
2019-02-06T19:40:51.654Z,31.85
2019-02-06T19:43:21.321Z,30.48
2019-02-06T19:45:50.610Z,34.50
2019-02-06T19:48:22.314Z,31.23
2019-02-06T19:50:51.338Z,33.67
2019-02-06T19:53:20.715Z,31.05
2019-02-06T19:55:49.999Z,32.75
2019-02-06T19:58:19.307Z,32.95
2019-02-06T20:00:48.968Z,33.10
2019-02-06T20:03:18.504Z,31.65
2019-02-06T20:05:47.808Z,31.35
2019-02-06T20:08:17.096Z,31.87
2019-02-06T20:10:49.333Z,31.62
2019-02-06T20:13:18.692Z,32.05
2019-02-06T20:15:48.231Z,30.82
2019-02-06T20:18:17.745Z,32.83
2019-02-06T20:20:47.296Z,31.57
2019-02-06T20:23:16.612Z,31.70
2019-02-06T20:25:45.919Z,29.15
2019-02-06T20:28:15.211Z,29.70
2019-02-06T20:30:44.583Z,30.27
2019-02-06T20:33:14.144Z,29.52
2019-02-06T20:35:43.451Z,30.02
2019-02-06T20:38:12.740Z,31.85
2019-02-06T20:40:44.018Z,30.75
2019-02-06T20:43:21.714Z,32.33
2019-02-06T20:45:44.303Z,32.80
2019-02-06T20:48:13.586Z,31.00
2019-02-06T20:50:43.409Z,32.95
2019-02-06T20:53:12.700Z,32.23
2019-02-06T20:55:42.002Z,32.88
2019-02-06T20:58:11.282Z,31.25
2019-02-06T21:00:42.560Z,31.70
2019-02-06T21:03:11.916Z,31.33
2019-02-06T21:05:41.607Z,34.18
2019-02-06T21:08:11.177Z,33.63
2019-02-06T21:10:40.466Z,37.28
2019-02-06T21:13:09.746Z,38.08
2019-02-06T21:15:39.283Z,33.55
2019-02-06T21:18:08.595Z,35.63
2019-02-06T21:20:37.949Z,37.38
2019-02-06T21:23:07.492Z,33.30
2019-02-06T21:25:36.787Z,32.95
2019-02-06T21:28:06.206Z,38.23
2019-02-06T21:30:40.608Z,42.98
2019-02-06T21:33:09.969Z,44.45
2019-02-06T21:35:39.756Z,39.27
2019-02-06T21:38:09.055Z,36.85
2019-02-06T21:40:39.111Z,31.42
2019-02-06T21:43:08.788Z,34.03
2019-02-06T21:45:38.153Z,30.70
2019-02-06T21:48:07.449Z,31.25
2019-02-06T21:50:37.111Z,30.85
2019-02-06T21:53:06.547Z,30.90
2019-02-06T21:55:35.840Z,32.00
2019-02-06T21:58:05.470Z,33.35
2019-02-06T22:00:40.450Z,30.32
2019-02-06T22:03:10.816Z,27.35
2019-02-06T22:05:40.363Z,29.52
2019-02-06T22:08:09.720Z,32.08
2019-02-06T22:10:39.015Z,35.28
2019-02-06T22:13:08.383Z,32.85
2019-02-06T22:15:38.048Z,30.10
2019-02-06T22:18:08.088Z,28.20
2019-02-06T22:20:37.690Z,27.62
2019-02-06T22:23:06.991Z,28.85
2019-02-06T22:25:36.600Z,28.50
2019-02-06T22:28:05.885Z,27.52
2019-02-06T22:30:35.187Z,28.20
2019-02-06T22:33:04.819Z,27.90
2019-02-06T22:35:34.126Z,27.37
2019-02-06T22:38:03.536Z,27.70
2019-02-06T22:40:32.828Z,27.52
2019-02-06T22:43:02.127Z,27.73
2019-02-06T22:45:31.724Z,27.07
2019-02-06T22:48:01.282Z,26.12
2019-02-06T22:50:30.656Z,25.75
2019-02-06T22:52:59.954Z,25.72
2019-02-06T22:55:29.260Z,24.77
2019-02-06T22:57:58.575Z,24.63
2019-02-06T23:00:53.703Z,23.70
2019-02-06T23:03:27.036Z,24.50
2019-02-06T23:05:56.348Z,24.40
2019-02-06T23:08:25.631Z,27.60
2019-02-06T23:10:54.960Z,27.05
2019-02-06T23:13:24.242Z,24.32
2019-02-06T23:15:53.787Z,24.57
2019-02-06T23:18:23.555Z,24.80
2019-02-06T23:20:52.843Z,26.80
2019-02-06T23:23:22.142Z,26.65
2019-02-06T23:25:51.803Z,25.55
2019-02-06T23:28:21.099Z,25.72
2019-02-06T23:30:50.388Z,25.12
2019-02-06T23:33:19.760Z,24.87
2019-02-06T23:35:49.387Z,25.50
2019-02-06T23:38:18.671Z,23.60
2019-02-06T23:40:48.259Z,24.12
2019-02-06T23:43:17.775Z,24.30
2019-02-06T23:45:47.103Z,24.67
2019-02-06T23:48:16.387Z,23.75
2019-02-06T23:50:46.000Z,24.23
2019-02-06T23:53:15.371Z,24.32
2019-02-06T23:55:45.044Z,20.82
2019-02-06T23:58:14.343Z,23.83
